createdAt,value
2019-05-26T00:00:38.138Z,15.50
2019-05-26T00:03:07.970Z,15.60
2019-05-26T00:05:37.761Z,15.50
2019-05-26T00:08:07.745Z,15.60
2019-05-26T00:10:37.875Z,15.60
2019-05-26T00:13:07.699Z,15.60
2019-05-26T00:15:37.650Z,15.60
2019-05-26T00:18:07.646Z,15.50
2019-05-26T00:20:37.608Z,15.50
2019-05-26T00:23:07.644Z,15.50
2019-05-26T00:25:37.516Z,15.50
2019-05-26T00:28:07.434Z,15.50
2019-05-26T00:30:37.698Z,15.40
2019-05-26T00:33:07.722Z,15.50
2019-05-26T00:35:37.609Z,15.50
2019-05-26T00:38:13.415Z,15.50
2019-05-26T00:40:43.252Z,15.40
2019-05-26T00:43:13.106Z,15.40
2019-05-26T00:45:43.130Z,15.40
2019-05-26T00:48:13.389Z,15.40
2019-05-26T00:50:43.192Z,15.40
2019-05-26T00:53:12.983Z,15.40
2019-05-26T00:55:42.940Z,15.50
2019-05-26T00:58:12.960Z,15.40
2019-05-26T01:00:45.536Z,15.40
2019-05-26T01:03:15.430Z,15.40
2019-05-26T01:05:45.262Z,15.40
2019-05-26T01:08:15.494Z,15.40
2019-05-26T01:10:45.387Z,15.40
2019-05-26T01:13:15.185Z,15.40
2019-05-26T01:15:44.978Z,15.40
2019-05-26T01:18:15.671Z,15.40
2019-05-26T01:20:45.571Z,15.40
2019-05-26T01:23:16.440Z,15.40
2019-05-26T01:25:46.274Z,15.50
2019-05-26T01:28:16.109Z,15.50
2019-05-26T01:30:46.398Z,15.50
2019-05-26T01:33:16.229Z,15.50
2019-05-26T01:35:46.025Z,15.60
2019-05-26T01:38:23.866Z,15.60
2019-05-26T01:40:50.539Z,15.60
2019-05-26T01:43:20.330Z,15.60
2019-05-26T01:45:51.211Z,15.60
2019-05-26T01:48:21.052Z,15.60
2019-05-26T01:50:50.997Z,15.70
2019-05-26T01:53:21.037Z,15.60
2019-05-26T01:55:50.930Z,15.70
2019-05-26T01:58:20.724Z,15.70
2019-05-26T02:00:50.918Z,15.70
2019-05-26T02:03:20.744Z,15.60
2019-05-26T02:05:50.610Z,15.60
2019-05-26T02:08:20.740Z,15.60
2019-05-26T02:10:50.562Z,15.50
2019-05-26T02:13:20.440Z,15.60
2019-05-26T02:15:50.813Z,15.50
2019-05-26T02:18:20.668Z,15.50
2019-05-26T02:20:50.534Z,15.50
2019-05-26T02:23:20.566Z,15.40
2019-05-26T02:25:50.386Z,15.40
2019-05-26T02:28:20.182Z,15.40
2019-05-26T02:30:51.139Z,15.40
2019-05-26T02:33:20.990Z,15.40
2019-05-26T02:35:50.774Z,15.40
2019-05-26T02:38:25.654Z,15.40
2019-05-26T02:40:53.180Z,15.40
2019-05-26T02:43:23.131Z,15.40
2019-05-26T02:45:52.946Z,15.40
2019-05-26T02:48:22.871Z,15.40
2019-05-26T02:50:52.865Z,15.40
2019-05-26T02:53:24.640Z,15.30
2019-05-26T02:55:54.510Z,15.30
2019-05-26T02:58:24.301Z,15.30
2019-05-26T03:00:55.236Z,15.40
2019-05-26T03:03:25.362Z,15.40
2019-05-26T03:05:55.664Z,15.40
2019-05-26T03:08:26.753Z,15.40
2019-05-26T03:10:59.246Z,15.40
2019-05-26T03:13:31.578Z,15.50
2019-05-26T03:16:02.275Z,15.50
2019-05-26T03:18:35.732Z,15.50
2019-05-26T03:21:06.698Z,15.50
2019-05-26T03:23:39.830Z,15.50
2019-05-26T03:26:11.719Z,15.50
2019-05-26T03:28:42.186Z,15.50
2019-05-26T03:31:12.840Z,15.50
2019-05-26T03:33:42.740Z,15.50
2019-05-26T03:36:12.607Z,15.50
2019-05-26T03:38:42.397Z,15.60
2019-05-26T03:41:12.361Z,15.50
2019-05-26T03:43:42.139Z,15.50
2019-05-26T03:46:19.826Z,15.60
2019-05-26T03:48:49.946Z,15.60
2019-05-26T03:51:20.041Z,15.60
2019-05-26T03:53:49.880Z,15.60
2019-05-26T03:56:19.687Z,15.70
2019-05-26T03:58:49.460Z,15.70
2019-05-26T04:01:19.378Z,15.70
2019-05-26T04:03:49.160Z,15.70
2019-05-26T04:06:19.373Z,15.70
2019-05-26T04:08:49.200Z,15.70
2019-05-26T04:11:19.140Z,15.70
2019-05-26T04:14:08.982Z,15.80
2019-05-26T04:16:38.778Z,15.80
2019-05-26T04:19:08.577Z,15.80
2019-05-26T04:21:39.209Z,15.80
2019-05-26T04:24:09.002Z,15.80
2019-05-26T04:26:39.756Z,15.80
2019-05-26T04:29:09.608Z,15.90
2019-05-26T04:31:39.644Z,15.90
2019-05-26T04:34:09.429Z,15.90
2019-05-26T04:36:39.364Z,15.80
2019-05-26T04:39:28.410Z,15.80
2019-05-26T04:41:59.521Z,15.80
2019-05-26T04:44:30.285Z,15.70
2019-05-26T04:47:00.071Z,15.60
2019-05-26T04:49:30.378Z,15.50
2019-05-26T04:52:00.613Z,15.50
2019-05-26T04:54:30.387Z,15.50
2019-05-26T04:57:00.223Z,15.50
2019-05-26T04:59:30.015Z,15.50
2019-05-26T05:01:59.993Z,15.50
2019-05-26T05:04:29.826Z,15.50
2019-05-26T05:06:59.618Z,15.50
2019-05-26T05:09:30.334Z,15.50
2019-05-26T05:12:00.170Z,15.50
2019-05-26T05:14:29.962Z,15.60
2019-05-26T05:17:00.025Z,15.60
2019-05-26T05:19:29.864Z,15.60
2019-05-26T05:21:59.887Z,15.60
2019-05-26T05:24:30.672Z,15.60
2019-05-26T05:27:00.511Z,15.70
2019-05-26T05:29:30.310Z,15.70
2019-05-26T05:32:00.420Z,15.70
2019-05-26T05:34:30.246Z,15.80
2019-05-26T05:37:00.044Z,15.80
2019-05-26T05:39:30.373Z,15.80
2019-05-26T05:42:00.192Z,15.90
2019-05-26T05:44:29.982Z,15.90
2019-05-26T05:47:00.423Z,16.00
2019-05-26T05:49:30.281Z,16.10
2019-05-26T05:52:00.201Z,16.10
2019-05-26T05:54:30.170Z,16.20
2019-05-26T05:57:00.015Z,16.30
2019-05-26T05:59:29.815Z,16.40
2019-05-26T06:01:59.610Z,16.40
2019-05-26T06:04:30.321Z,16.50
2019-05-26T06:07:00.127Z,16.50
2019-05-26T06:09:30.759Z,16.60
2019-05-26T06:12:00.750Z,16.60
2019-05-26T06:14:30.569Z,16.70
2019-05-26T06:17:00.741Z,16.70
2019-05-26T06:19:30.583Z,16.70
2019-05-26T06:22:00.723Z,16.70
2019-05-26T06:24:30.790Z,16.70
2019-05-26T06:27:00.625Z,16.70
2019-05-26T06:29:31.295Z,16.70
2019-05-26T06:32:01.247Z,16.80
2019-05-26T06:34:31.342Z,16.80
2019-05-26T06:37:02.118Z,16.80
2019-05-26T06:39:31.985Z,16.80
2019-05-26T06:42:01.811Z,16.80
2019-05-26T06:44:32.009Z,16.90
2019-05-26T06:47:01.803Z,16.90
2019-05-26T06:49:31.647Z,17.00
2019-05-26T06:52:02.062Z,17.00
2019-05-26T06:54:32.984Z,17.00
2019-05-26T06:57:03.107Z,17.10
2019-05-26T06:59:32.890Z,17.10
2019-05-26T07:02:02.903Z,17.00
2019-05-26T07:04:32.740Z,17.00
2019-05-26T07:07:02.664Z,17.00
2019-05-26T07:09:32.755Z,17.00
2019-05-26T07:12:02.818Z,16.90
2019-05-26T07:14:32.609Z,16.90
2019-05-26T07:17:02.544Z,16.80
2019-05-26T07:19:32.591Z,16.70
2019-05-26T07:22:03.408Z,16.70
2019-05-26T07:24:33.201Z,16.70
2019-05-26T07:27:03.015Z,16.70
2019-05-26T07:29:33.644Z,16.80
2019-05-26T07:32:03.810Z,16.80
2019-05-26T07:34:34.140Z,16.80
2019-05-26T07:37:03.925Z,16.80
2019-05-26T07:39:33.762Z,16.80
2019-05-26T07:42:10.469Z,16.90
2019-05-26T07:44:35.607Z,16.90
2019-05-26T07:47:05.470Z,16.90
2019-05-26T07:49:35.305Z,17.00
2019-05-26T07:52:05.270Z,17.00
2019-05-26T07:54:35.121Z,17.10
2019-05-26T07:57:04.964Z,17.10
2019-05-26T07:59:34.778Z,17.10
2019-05-26T08:02:05.270Z,17.10
2019-05-26T08:04:35.106Z,17.10
2019-05-26T08:07:05.291Z,17.10
2019-05-26T08:09:35.115Z,17.10
2019-05-26T08:12:28.390Z,17.10
2019-05-26T08:17:39.982Z,17.20
2019-05-26T08:20:11.155Z,17.40
2019-05-26T08:22:42.242Z,17.50
2019-05-26T08:25:12.062Z,17.60
2019-05-26T08:27:41.854Z,17.60
2019-05-26T08:30:14.611Z,17.60
2019-05-26T08:32:44.855Z,17.60
2019-05-26T08:35:15.590Z,17.50
2019-05-26T08:37:45.387Z,17.60
2019-05-26T08:40:17.906Z,17.50
2019-05-26T08:42:50.734Z,17.50
2019-05-26T08:45:23.501Z,17.40
2019-05-26T08:47:53.300Z,17.40
2019-05-26T08:50:23.091Z,17.50
2019-05-26T08:52:52.915Z,17.50
2019-05-26T08:55:22.775Z,17.50
2019-05-26T08:57:52.506Z,17.50
2019-05-26T09:00:22.854Z,17.50
2019-05-26T09:02:52.719Z,17.50
2019-05-26T09:05:22.613Z,17.50
2019-05-26T09:07:52.433Z,17.40
2019-05-26T09:10:22.493Z,17.40
2019-05-26T09:13:00.628Z,17.30
2019-05-26T09:15:24.346Z,17.20
2019-05-26T09:17:54.873Z,17.20
2019-05-26T09:20:24.670Z,17.20
2019-05-26T09:22:54.505Z,17.40
2019-05-26T09:25:25.254Z,17.50
2019-05-26T09:27:55.047Z,17.60
2019-05-26T09:30:24.937Z,17.70
2019-05-26T09:32:55.542Z,17.80
2019-05-26T09:35:25.334Z,17.90
2019-05-26T09:37:55.168Z,17.80
2019-05-26T09:40:24.969Z,18.00
2019-05-26T09:42:54.768Z,18.10
2019-05-26T09:45:24.655Z,18.20
2019-05-26T09:47:55.099Z,18.20
2019-05-26T09:50:24.890Z,18.00
2019-05-26T09:52:54.711Z,18.10
2019-05-26T09:55:24.785Z,18.20
2019-05-26T09:57:54.574Z,18.40
2019-05-26T10:00:24.672Z,18.70
2019-05-26T10:02:54.463Z,18.60
2019-05-26T10:05:24.261Z,18.50
2019-05-26T10:07:54.513Z,18.30
2019-05-26T10:10:24.310Z,18.00
2019-05-26T10:12:54.110Z,17.90
2019-05-26T10:15:24.542Z,17.80
2019-05-26T10:17:54.332Z,17.60
2019-05-26T10:20:24.126Z,17.70
2019-05-26T10:22:54.506Z,17.70
2019-05-26T10:25:25.251Z,17.80
2019-05-26T10:27:55.048Z,17.80
2019-05-26T10:30:25.050Z,17.70
2019-05-26T10:32:55.211Z,17.60
2019-05-26T10:35:25.101Z,17.60
2019-05-26T10:37:54.934Z,17.40
2019-05-26T10:40:24.720Z,17.40
2019-05-26T10:42:55.384Z,17.50
2019-05-26T10:45:25.207Z,17.60
2019-05-26T10:47:55.118Z,17.70
2019-05-26T10:50:24.913Z,17.80
2019-05-26T10:52:54.746Z,18.00
2019-05-26T10:55:25.060Z,18.00
2019-05-26T10:57:54.850Z,18.00
2019-05-26T11:00:24.677Z,18.00
2019-05-26T11:02:54.706Z,18.00
2019-05-26T11:05:24.502Z,18.00
2019-05-26T11:07:54.334Z,18.10
2019-05-26T11:10:24.753Z,18.20
2019-05-26T11:12:54.545Z,18.40
2019-05-26T11:15:24.446Z,18.70
2019-05-26T11:17:54.950Z,18.50
2019-05-26T11:20:24.758Z,18.40
2019-05-26T11:22:54.569Z,18.70
2019-05-26T11:25:24.737Z,18.90
2019-05-26T11:27:54.539Z,19.20
2019-05-26T11:30:24.860Z,18.80
2019-05-26T11:32:54.670Z,18.40
2019-05-26T11:35:24.492Z,18.40
2019-05-26T11:37:54.329Z,18.30
2019-05-26T11:40:24.127Z,18.40
2019-05-26T11:42:54.473Z,18.40
2019-05-26T11:45:24.312Z,18.00
2019-05-26T11:47:54.299Z,18.00
2019-05-26T11:50:24.494Z,18.30
2019-05-26T11:52:54.332Z,18.50
2019-05-26T11:55:27.140Z,18.20
2019-05-26T11:57:55.554Z,17.90
2019-05-26T12:00:25.448Z,17.70
2019-05-26T12:02:55.816Z,17.70
2019-05-26T12:05:25.598Z,18.20
2019-05-26T12:07:55.496Z,18.30
2019-05-26T12:10:25.434Z,18.40
2019-05-26T12:12:55.235Z,18.40
2019-05-26T12:15:25.452Z,18.40
2019-05-26T12:17:55.298Z,18.60
2019-05-26T12:20:25.081Z,18.50
2019-05-26T12:22:54.924Z,18.40
2019-05-26T12:25:25.356Z,18.40
2019-05-26T12:27:55.147Z,18.50
2019-05-26T12:30:25.053Z,19.00
2019-05-26T12:32:55.100Z,20.10
2019-05-26T12:35:26.530Z,20.30
2019-05-26T12:37:56.430Z,20.10
2019-05-26T12:40:26.215Z,20.00
2019-05-26T12:42:56.016Z,19.80
2019-05-26T12:45:25.844Z,19.50
2019-05-26T12:47:56.099Z,19.10
2019-05-26T12:50:25.876Z,18.80
2019-05-26T12:52:55.735Z,18.90
2019-05-26T12:55:25.694Z,19.10
2019-05-26T12:57:56.447Z,19.30
2019-05-26T13:00:26.272Z,19.50
2019-05-26T13:02:56.072Z,19.70
2019-05-26T13:05:25.867Z,19.50
2019-05-26T13:07:55.684Z,18.90
2019-05-26T13:10:25.486Z,18.30
2019-05-26T13:12:55.396Z,18.30
2019-05-26T13:15:25.514Z,18.20
2019-05-26T13:17:55.496Z,17.90
2019-05-26T13:20:27.000Z,17.70
2019-05-26T13:22:57.231Z,17.50
2019-05-26T13:25:27.094Z,17.60
2019-05-26T13:27:56.895Z,17.50
2019-05-26T13:30:27.131Z,17.40
2019-05-26T13:32:56.955Z,17.20
2019-05-26T13:35:26.724Z,17.10
2019-05-26T13:37:56.915Z,17.30
2019-05-26T13:40:29.573Z,17.60
2019-05-26T13:42:58.113Z,18.10
2019-05-26T13:45:27.979Z,18.50
2019-05-26T13:47:57.767Z,18.50
2019-05-26T13:50:28.062Z,18.40
2019-05-26T13:52:57.920Z,18.30
2019-05-26T13:55:27.774Z,18.20
2019-05-26T13:57:57.707Z,18.20
2019-05-26T14:00:27.645Z,18.10
2019-05-26T14:02:57.434Z,18.10
2019-05-26T14:05:27.751Z,18.10
2019-05-26T14:07:57.581Z,18.10
2019-05-26T14:10:35.893Z,18.10
2019-05-26T14:13:07.633Z,18.40
2019-05-26T14:15:39.131Z,18.80
2019-05-26T14:18:08.936Z,19.10
2019-05-26T14:20:40.759Z,18.90
2019-05-26T14:23:11.371Z,18.80
2019-05-26T14:25:41.166Z,18.90
2019-05-26T14:28:11.528Z,18.60
2019-05-26T14:30:41.309Z,18.60
2019-05-26T14:33:11.118Z,18.60
2019-05-26T14:35:41.319Z,18.60
2019-05-26T14:38:11.131Z,18.60
2019-05-26T14:40:40.915Z,18.50
2019-05-26T14:43:11.440Z,18.30
2019-05-26T14:45:52.966Z,18.20
2019-05-26T14:48:12.646Z,18.20
2019-05-26T14:50:42.641Z,18.10
2019-05-26T14:53:12.452Z,17.90
2019-05-26T14:55:42.255Z,18.10
2019-05-26T14:58:16.265Z,18.10
2019-05-26T15:00:44.246Z,18.20
2019-05-26T15:03:14.080Z,18.40
2019-05-26T15:05:44.017Z,18.50
2019-05-26T15:08:14.031Z,18.70
2019-05-26T15:10:44.041Z,18.50
2019-05-26T15:13:13.967Z,18.40
2019-05-26T15:15:44.120Z,18.40
2019-05-26T15:18:14.700Z,18.30
2019-05-26T15:20:44.550Z,18.30
2019-05-26T15:23:14.628Z,18.00
2019-05-26T15:25:44.456Z,17.90
2019-05-26T15:28:14.501Z,17.80
2019-05-26T15:30:44.261Z,17.70
2019-05-26T15:33:14.412Z,17.60
2019-05-26T15:35:45.050Z,17.80
2019-05-26T15:38:15.146Z,17.80
2019-05-26T15:40:44.943Z,17.70
2019-05-26T15:43:14.771Z,17.50
2019-05-26T15:45:44.563Z,17.30
2019-05-26T15:48:14.348Z,17.10
2019-05-26T15:50:44.193Z,17.00
2019-05-26T15:53:14.359Z,17.00
2019-05-26T15:55:44.563Z,17.00
2019-05-26T15:58:14.377Z,17.00
2019-05-26T16:00:44.634Z,17.10
2019-05-26T16:03:14.418Z,16.90
2019-05-26T16:05:44.268Z,16.80
2019-05-26T16:08:14.640Z,16.70
2019-05-26T16:10:44.423Z,16.70
2019-05-26T16:13:14.247Z,16.60
2019-05-26T16:15:44.043Z,16.60
2019-05-26T16:18:13.859Z,16.50
2019-05-26T16:20:44.149Z,16.50
2019-05-26T16:23:13.947Z,16.60
2019-05-26T16:25:43.853Z,16.70
2019-05-26T16:28:13.904Z,16.70
2019-05-26T16:30:43.883Z,16.60
2019-05-26T16:33:13.827Z,16.70
2019-05-26T16:35:43.747Z,16.40
2019-05-26T16:38:13.738Z,16.30
2019-05-26T16:40:43.692Z,16.20
2019-05-26T16:43:13.801Z,16.20
2019-05-26T16:45:55.600Z,16.20
2019-05-26T16:48:15.074Z,16.20
2019-05-26T16:50:45.318Z,16.10
2019-05-26T16:53:15.195Z,16.10
2019-05-26T16:55:45.595Z,16.00
2019-05-26T16:58:15.507Z,15.90
2019-05-26T17:00:46.025Z,15.90
2019-05-26T17:03:15.821Z,15.90
2019-05-26T17:05:45.643Z,15.80
2019-05-26T17:08:16.085Z,15.80
2019-05-26T17:10:45.887Z,15.70
2019-05-26T17:13:15.721Z,15.80
2019-05-26T17:15:45.791Z,15.80
2019-05-26T17:18:15.580Z,15.80
2019-05-26T17:20:45.409Z,15.70
2019-05-26T17:23:15.780Z,15.70
2019-05-26T17:25:45.588Z,15.70
2019-05-26T17:28:15.420Z,15.70
2019-05-26T17:30:45.894Z,15.70
2019-05-26T17:33:15.684Z,15.70
2019-05-26T17:35:45.509Z,15.70
2019-05-26T17:38:15.508Z,15.70
2019-05-26T17:40:45.304Z,15.70
2019-05-26T17:43:15.149Z,15.70
2019-05-26T17:45:46.648Z,15.70
2019-05-26T17:48:16.973Z,15.70
2019-05-26T17:50:46.794Z,15.70
2019-05-26T17:53:16.582Z,15.70
2019-05-26T17:55:46.749Z,15.60
2019-05-26T17:58:16.642Z,15.50
2019-05-26T18:00:46.523Z,15.60
2019-05-26T18:03:17.045Z,15.50
2019-05-26T18:05:46.889Z,15.50
2019-05-26T18:08:16.699Z,15.60
2019-05-26T18:10:47.081Z,15.60
2019-05-26T18:13:16.935Z,15.60
2019-05-26T18:15:46.738Z,15.50
2019-05-26T18:18:17.045Z,15.40
2019-05-26T18:20:46.862Z,15.40
2019-05-26T18:23:16.676Z,15.30
2019-05-26T18:25:46.784Z,15.20
2019-05-26T18:28:16.621Z,15.20
2019-05-26T18:30:46.426Z,15.10
2019-05-26T18:33:16.852Z,15.10
2019-05-26T18:35:46.670Z,15.10
2019-05-26T18:38:16.466Z,15.10
2019-05-26T18:40:46.465Z,15.10
2019-05-26T18:43:16.319Z,15.00
2019-05-26T18:45:46.186Z,15.00
2019-05-26T18:48:16.531Z,15.00
2019-05-26T18:50:46.366Z,14.90
2019-05-26T18:53:16.161Z,15.00
2019-05-26T18:55:46.337Z,15.00
2019-05-26T18:58:16.133Z,15.00
2019-05-26T19:00:46.157Z,15.00
2019-05-26T19:03:16.232Z,15.00
2019-05-26T19:05:46.083Z,15.00
2019-05-26T19:08:15.882Z,15.00
2019-05-26T19:10:46.046Z,14.90
2019-05-26T19:13:15.859Z,14.90
2019-05-26T19:15:45.668Z,14.80
2019-05-26T19:18:20.181Z,14.80
2019-05-26T19:20:47.780Z,14.80
2019-05-26T19:23:17.581Z,14.80
2019-05-26T19:25:47.659Z,14.80
2019-05-26T19:28:17.599Z,14.70
2019-05-26T19:30:47.537Z,14.70
2019-05-26T19:33:17.763Z,14.70
2019-05-26T19:35:47.609Z,14.60
2019-05-26T19:38:17.798Z,14.60
2019-05-26T19:40:47.775Z,14.60
2019-05-26T19:43:17.613Z,14.50
2019-05-26T19:45:47.479Z,14.50
2019-05-26T19:48:17.466Z,14.40
2019-05-26T19:50:47.506Z,14.40
2019-05-26T19:53:17.313Z,14.40
2019-05-26T19:55:47.423Z,14.30
2019-05-26T19:58:17.560Z,14.30
2019-05-26T20:00:48.157Z,14.30
2019-05-26T20:03:17.967Z,14.20
2019-05-26T20:05:47.962Z,14.20
2019-05-26T20:08:18.135Z,14.20
2019-05-26T20:10:47.931Z,14.20
2019-05-26T20:13:17.779Z,14.10
2019-05-26T20:15:47.864Z,14.00
2019-05-26T20:18:18.019Z,14.00
2019-05-26T20:20:47.851Z,14.00
2019-05-26T20:23:17.683Z,14.00
2019-05-26T20:25:47.826Z,13.90
2019-05-26T20:28:17.671Z,13.90
2019-05-26T20:30:48.404Z,13.90
2019-05-26T20:33:18.200Z,13.90
2019-05-26T20:35:48.329Z,13.80
2019-05-26T20:38:18.929Z,13.80
2019-05-26T20:40:48.797Z,13.80
2019-05-26T20:43:18.646Z,13.70
2019-05-26T20:45:48.433Z,13.70
2019-05-26T20:48:18.246Z,13.70
2019-05-26T20:50:48.428Z,13.60
2019-05-26T20:53:18.615Z,13.70
2019-05-26T20:55:48.400Z,13.70
2019-05-26T20:58:18.234Z,13.60
2019-05-26T21:00:48.021Z,13.60
2019-05-26T21:03:17.828Z,13.60
2019-05-26T21:05:47.947Z,13.50
2019-05-26T21:08:17.735Z,13.50
2019-05-26T21:10:47.636Z,13.50
2019-05-26T21:13:17.709Z,13.50
2019-05-26T21:15:47.541Z,13.40
2019-05-26T21:18:17.446Z,13.40
2019-05-26T21:20:47.479Z,13.40
2019-05-26T21:23:17.625Z,13.40
2019-05-26T21:25:47.446Z,13.30
2019-05-26T21:28:17.689Z,13.30
2019-05-26T21:30:47.571Z,13.30
2019-05-26T21:33:17.359Z,13.20
2019-05-26T21:35:47.440Z,13.20
2019-05-26T21:38:17.347Z,13.20
2019-05-26T21:40:47.349Z,13.20
2019-05-26T21:43:17.189Z,13.20
2019-05-26T21:45:47.407Z,13.20
2019-05-26T21:48:17.214Z,13.10
2019-05-26T21:50:47.450Z,13.10
2019-05-26T21:53:17.245Z,13.10
2019-05-26T21:55:47.041Z,13.00
2019-05-26T21:58:17.021Z,13.00
2019-05-26T22:00:48.984Z,13.00
2019-05-26T22:03:18.780Z,13.00
2019-05-26T22:05:49.045Z,13.00
2019-05-26T22:08:18.797Z,13.00
2019-05-26T22:10:48.597Z,13.00
2019-05-26T22:13:18.642Z,13.00
2019-05-26T22:15:48.440Z,13.00
2019-05-26T22:18:18.247Z,13.00
2019-05-26T22:20:48.612Z,12.90
2019-05-26T22:23:18.401Z,12.90
2019-05-26T22:25:48.197Z,12.90
2019-05-26T22:28:18.441Z,12.90
2019-05-26T22:30:48.244Z,12.80
2019-05-26T22:33:18.028Z,12.80
2019-05-26T22:35:48.499Z,12.80
2019-05-26T22:38:18.476Z,12.80
2019-05-26T22:40:48.277Z,12.80
2019-05-26T22:43:18.784Z,12.80
2019-05-26T22:45:48.593Z,12.80
2019-05-26T22:48:18.390Z,12.80
2019-05-26T22:50:48.758Z,12.70
2019-05-26T22:53:18.550Z,12.80
2019-05-26T22:55:48.347Z,12.70
2019-05-26T22:58:18.583Z,12.70
2019-05-26T23:00:48.748Z,12.70
2019-05-26T23:03:19.227Z,12.80
2019-05-26T23:05:49.071Z,12.80
2019-05-26T23:08:18.863Z,12.80
2019-05-26T23:10:49.296Z,12.80
2019-05-26T23:13:19.196Z,12.90
2019-05-26T23:15:48.991Z,12.90
2019-05-26T23:18:19.196Z,13.00
2019-05-26T23:20:49.096Z,13.00
2019-05-26T23:23:18.905Z,13.10
2019-05-26T23:25:49.182Z,13.20
2019-05-26T23:28:19.004Z,13.20
2019-05-26T23:30:48.810Z,13.30
2019-05-26T23:33:19.252Z,13.30
2019-05-26T23:35:49.084Z,13.30
2019-05-26T23:38:18.884Z,13.40
2019-05-26T23:40:49.455Z,13.30
2019-05-26T23:43:19.300Z,13.40
2019-05-26T23:45:49.085Z,13.40
2019-05-26T23:48:19.472Z,13.40
2019-05-26T23:50:49.306Z,13.40
2019-05-26T23:53:19.097Z,13.30
2019-05-26T23:55:49.408Z,13.40
2019-05-26T23:58:19.235Z,13.40
